Terminal Aerodrome Forecast
Issued by NWS Atlanta, GA

Home | Current Version | Previous Version | Text Only | Print | Product List | Glossary On
Versions: 1 2 3 4 5 6 7 8 9 10 11 12 13 14 15 16 17 18 19 20 21 22 23 24 25 26 27 28 29 30 31 32 33 34 35 36 37 38 39 40 41 42 43 44
000
FTUS42 KFFC 020750 AAA
TAFATL
TAF AMD
KATL 020750Z 0208/0312 14003KT P6SM FEW070
     FM021000 11008KT 5SM BR BKN008
     FM021700 12009KT P6SM BKN015
     FM021900 14010KT P6SM SCT025 BKN040
     FM022200 19011KT P6SM BKN040 PROB30 0222/0302 4SM -TSRA
      BKN030CB=

USA.gov is the U.S. government's official web portal to all federal, state and local government web resources and services.